createdAt,value
2019-02-28T00:01:01.532Z,23.03
2019-02-28T00:03:30.545Z,23.30
2019-02-28T00:05:59.673Z,23.63
2019-02-28T00:08:30.012Z,22.23
2019-02-28T00:10:59.113Z,23.47
2019-02-28T00:13:28.166Z,23.67
2019-02-28T00:15:57.146Z,25.17
2019-02-28T00:18:26.182Z,24.07
2019-02-28T00:20:55.283Z,23.53
2019-02-28T00:23:24.339Z,22.63
2019-02-28T00:25:53.281Z,23.73
2019-02-28T00:28:23.071Z,25.03
2019-02-28T00:30:53.044Z,25.27
2019-02-28T00:33:22.156Z,24.03
2019-02-28T00:35:51.211Z,23.40
2019-02-28T00:38:20.241Z,24.77
2019-02-28T00:40:49.338Z,24.17
2019-02-28T00:43:18.383Z,22.10
2019-02-28T00:45:47.453Z,22.83
2019-02-28T00:48:18.227Z,23.97
2019-02-28T00:50:47.206Z,25.43
2019-02-28T00:53:16.223Z,24.43
2019-02-28T00:55:45.938Z,24.07
2019-02-28T00:58:15.945Z,24.47
2019-02-28T01:00:44.962Z,24.63
2019-02-28T01:03:13.962Z,24.13
2019-02-28T01:05:42.982Z,24.20
2019-02-28T01:08:12.105Z,24.87
2019-02-28T01:10:41.141Z,24.10
2019-02-28T01:13:10.219Z,25.53
2019-02-28T01:15:44.490Z,25.10
2019-02-28T01:18:10.044Z,25.73
2019-02-28T01:20:39.093Z,25.17
2019-02-28T01:23:08.076Z,24.60
2019-02-28T01:25:40.021Z,24.87
2019-02-28T01:28:07.866Z,24.97
2019-02-28T01:30:37.051Z,24.43
2019-02-28T01:33:07.692Z,25.77
2019-02-28T01:35:37.508Z,25.93
2019-02-28T01:38:07.468Z,24.33
2019-02-28T01:40:37.724Z,25.63
2019-02-28T01:43:07.430Z,24.27
2019-02-28T01:45:36.413Z,22.70
2019-02-28T01:48:05.480Z,24.83
2019-02-28T01:50:34.546Z,24.83
2019-02-28T01:53:03.618Z,24.70
2019-02-28T01:55:32.692Z,24.37
2019-02-28T01:58:01.709Z,24.43
2019-02-28T02:00:30.724Z,26.30
2019-02-28T02:02:59.688Z,25.43
2019-02-28T02:05:28.782Z,24.37
2019-02-28T02:07:57.799Z,25.00
2019-02-28T02:10:26.763Z,23.53
2019-02-28T02:12:55.816Z,23.37
2019-02-28T02:15:24.822Z,24.50
2019-02-28T02:17:53.824Z,24.73
2019-02-28T02:20:23.482Z,25.60
2019-02-28T02:22:53.612Z,25.60
2019-02-28T02:25:22.650Z,26.77
2019-02-28T02:27:53.336Z,25.33
2019-02-28T02:30:22.878Z,22.70
2019-02-28T02:32:51.925Z,22.17
2019-02-28T02:35:20.955Z,21.33
2019-02-28T02:37:49.995Z,21.83
2019-02-28T02:40:23.118Z,21.20
2019-02-28T02:42:50.170Z,19.43
2019-02-28T02:45:19.375Z,20.50
2019-02-28T02:47:48.405Z,19.33
2019-02-28T02:50:17.425Z,20.53
2019-02-28T02:52:46.443Z,19.17
2019-02-28T02:55:15.468Z,19.20
2019-02-28T02:57:50.510Z,19.93
2019-02-28T03:00:16.410Z,19.13
2019-02-28T03:02:45.470Z,19.33
2019-02-28T03:05:14.578Z,20.70
2019-02-28T03:07:43.618Z,19.93
2019-02-28T03:10:17.269Z,20.63
2019-02-28T03:12:44.410Z,21.67
2019-02-28T03:15:14.477Z,22.17
2019-02-28T03:17:47.296Z,22.67
2019-02-28T03:20:14.347Z,24.23
2019-02-28T03:22:43.416Z,23.53
2019-02-28T03:25:12.955Z,23.40
2019-02-28T03:27:41.992Z,24.57
2019-02-28T03:30:26.506Z,25.57
2019-02-28T03:32:43.898Z,25.23
2019-02-28T03:35:12.950Z,25.47
2019-02-28T03:37:42.015Z,25.40
2019-02-28T03:40:11.212Z,25.10
2019-02-28T03:42:40.362Z,26.73
2019-02-28T03:45:09.421Z,26.87
2019-02-28T03:47:38.508Z,26.40
2019-02-28T03:50:08.047Z,26.47
2019-02-28T03:52:42.247Z,27.13
2019-02-28T03:55:07.949Z,26.83
2019-02-28T03:57:36.985Z,26.93
2019-02-28T04:00:12.113Z,30.20
2019-02-28T04:03:00.348Z,27.03
2019-02-28T04:05:29.335Z,28.00
2019-02-28T04:08:01.407Z,27.07
2019-02-28T04:10:30.497Z,28.43
2019-02-28T04:13:00.832Z,27.27
2019-02-28T04:15:29.893Z,25.67
2019-02-28T04:17:58.977Z,24.73
2019-02-28T04:20:28.014Z,25.00
2019-02-28T04:22:59.968Z,25.33
2019-02-28T04:25:27.774Z,25.50
2019-02-28T04:27:56.826Z,26.07
2019-02-28T04:30:25.948Z,26.27
2019-02-28T04:33:01.078Z,26.87
2019-02-28T04:35:25.693Z,26.00
2019-02-28T04:37:54.757Z,26.67
2019-02-28T04:40:24.074Z,26.57
2019-02-28T04:42:54.550Z,27.53
2019-02-28T04:45:26.221Z,26.40
2019-02-28T04:47:54.293Z,27.60
2019-02-28T04:50:23.375Z,28.03
2019-02-28T04:52:52.374Z,29.37
2019-02-28T04:55:21.431Z,26.83
2019-02-28T04:57:51.632Z,27.70
2019-02-28T05:00:21.403Z,27.73
2019-02-28T05:02:53.843Z,27.77
2019-02-28T05:05:21.195Z,25.87
2019-02-28T05:07:50.262Z,25.87
2019-02-28T05:10:22.362Z,25.67
2019-02-28T05:12:50.040Z,27.47
2019-02-28T05:15:19.090Z,24.43
2019-02-28T05:17:48.098Z,23.10
2019-02-28T05:20:17.133Z,21.80
2019-02-28T05:22:46.193Z,22.13
2019-02-28T05:25:18.688Z,21.63
2019-02-28T05:27:45.941Z,19.87
2019-02-28T05:30:17.952Z,20.53
2019-02-28T05:32:45.735Z,21.33
2019-02-28T05:35:15.092Z,20.47
2019-02-28T05:37:48.088Z,20.20
2019-02-28T05:40:20.856Z,20.60
2019-02-28T05:42:49.979Z,20.57
2019-02-28T05:45:19.031Z,20.20
2019-02-28T05:47:48.126Z,21.03
2019-02-28T05:50:17.459Z,22.67
2019-02-28T05:52:53.374Z,21.50
2019-02-28T05:55:25.556Z,21.37
2019-02-28T05:57:53.142Z,19.87
2019-02-28T06:00:23.073Z,20.00
2019-02-28T06:02:54.460Z,19.73
2019-02-28T06:05:24.236Z,19.33
2019-02-28T06:07:54.450Z,19.93
2019-02-28T06:10:24.599Z,18.43
2019-02-28T06:12:53.905Z,20.10
2019-02-28T06:15:22.880Z,19.83
2019-02-28T06:17:54.631Z,20.53
2019-02-28T06:20:22.577Z,20.17
2019-02-28T06:22:51.550Z,19.97
2019-02-28T06:25:24.105Z,19.43
2019-02-28T06:27:51.511Z,19.20
2019-02-28T06:30:20.567Z,20.00
2019-02-28T06:32:49.640Z,19.67
2019-02-28T06:35:20.483Z,20.57
2019-02-28T06:37:49.445Z,20.77
2019-02-28T06:40:18.477Z,20.67
2019-02-28T06:42:47.692Z,20.03
2019-02-28T06:45:16.782Z,20.20
2019-02-28T06:47:49.614Z,19.90
2019-02-28T06:50:16.562Z,20.93
2019-02-28T06:52:45.621Z,21.20
2019-02-28T06:55:18.798Z,21.67
2019-02-28T06:57:47.805Z,21.93
2019-02-28T07:00:16.925Z,21.80
2019-02-28T07:02:45.948Z,21.77
2019-02-28T07:05:14.991Z,21.73
2019-02-28T07:07:47.665Z,22.57
2019-02-28T07:10:14.793Z,21.70
2019-02-28T07:12:43.864Z,21.57
2019-02-28T07:15:13.198Z,22.80
2019-02-28T07:17:42.707Z,22.60
2019-02-28T07:20:13.766Z,23.87
2019-02-28T07:22:42.833Z,24.83
2019-02-28T07:25:12.856Z,22.87
2019-02-28T07:27:42.770Z,23.23
2019-02-28T07:30:17.319Z,23.50
2019-02-28T07:32:44.300Z,23.70
2019-02-28T07:35:13.304Z,24.63
2019-02-28T07:37:42.340Z,25.50
2019-02-28T07:40:15.506Z,22.83
2019-02-28T07:42:42.647Z,23.70
2019-02-28T07:45:12.205Z,24.53
2019-02-28T07:47:41.360Z,23.63
2019-02-28T07:50:11.981Z,24.37
2019-02-28T07:52:41.140Z,25.17
2019-02-28T07:55:10.869Z,25.93
2019-02-28T07:57:39.886Z,24.63
2019-02-28T08:00:16.815Z,24.77
2019-02-28T08:02:43.045Z,23.27
2019-02-28T08:05:12.374Z,24.43
2019-02-28T08:07:42.785Z,24.10
2019-02-28T08:10:16.025Z,25.30
2019-02-28T08:12:44.021Z,25.77
2019-02-28T08:15:22.404Z,26.87
2019-02-28T08:17:50.756Z,25.57
2019-02-28T08:20:20.104Z,26.00
2019-02-28T08:22:49.141Z,26.27
2019-02-28T08:25:18.144Z,26.90
2019-02-28T08:27:47.131Z,27.23
2019-02-28T08:30:19.568Z,25.93
2019-02-28T08:32:48.427Z,26.60
2019-02-28T08:35:17.500Z,31.57
2019-02-28T08:37:46.618Z,28.77
2019-02-28T08:40:17.198Z,27.53
2019-02-28T08:42:46.276Z,30.10
2019-02-28T08:45:15.411Z,29.07
2019-02-28T08:48:03.673Z,30.93
2019-02-28T08:50:32.728Z,31.10
2019-02-28T08:53:01.761Z,30.63
2019-02-28T08:55:30.780Z,31.47
2019-02-28T08:58:05.295Z,31.87
2019-02-28T09:00:32.871Z,34.27
2019-02-28T09:03:01.215Z,33.77
2019-02-28T09:05:30.465Z,33.20
2019-02-28T09:07:59.503Z,34.27
2019-02-28T09:10:28.495Z,36.57
2019-02-28T09:12:57.549Z,37.87
2019-02-28T09:15:45.766Z,35.80
2019-02-28T09:18:14.813Z,37.23
2019-02-28T09:20:45.097Z,36.20
2019-02-28T09:23:14.299Z,37.20
2019-02-28T09:25:43.364Z,37.33
2019-02-28T09:28:13.020Z,37.80
2019-02-28T09:30:42.764Z,37.87
2019-02-28T09:33:11.790Z,39.10
2019-02-28T09:35:45.210Z,39.00
2019-02-28T09:38:13.536Z,38.63
2019-02-28T09:40:42.314Z,39.37
2019-02-28T09:43:11.381Z,39.23
2019-02-28T09:45:41.202Z,40.53
2019-02-28T09:48:10.329Z,41.03
2019-02-28T09:50:39.335Z,40.43
2019-02-28T09:53:08.357Z,40.60
2019-02-28T09:55:37.372Z,41.67
2019-02-28T09:58:06.398Z,41.93
2019-02-28T10:00:35.355Z,43.53
2019-02-28T10:03:04.393Z,41.20
2019-02-28T10:05:33.529Z,42.23
2019-02-28T10:08:03.130Z,42.13
2019-02-28T10:10:32.158Z,40.53
2019-02-28T10:13:01.147Z,43.80
2019-02-28T10:15:30.158Z,44.60
2019-02-28T10:18:00.626Z,44.50
2019-02-28T10:20:29.862Z,46.30
2019-02-28T10:22:58.905Z,43.70
2019-02-28T10:25:27.888Z,44.40
2019-02-28T10:28:01.717Z,46.57
2019-02-28T10:30:31.850Z,45.03
2019-02-28T10:32:58.365Z,44.60
2019-02-28T10:35:27.430Z,44.47
2019-02-28T10:37:58.422Z,44.57
2019-02-28T10:40:27.370Z,46.27
2019-02-28T10:42:56.478Z,46.33
2019-02-28T10:45:25.665Z,47.07
2019-02-28T10:47:54.722Z,48.73
2019-02-28T10:50:25.946Z,48.17
2019-02-28T10:52:55.123Z,48.60
2019-02-28T10:55:24.273Z,49.07
2019-02-28T10:57:53.314Z,49.20
2019-02-28T11:00:25.935Z,52.87
2019-02-28T11:02:57.463Z,50.20
2019-02-28T11:05:29.137Z,52.27
2019-02-28T11:07:58.274Z,51.40
2019-02-28T11:10:35.438Z,53.43
2019-02-28T11:13:03.095Z,50.20
2019-02-28T11:15:33.371Z,54.13
2019-02-28T11:18:02.410Z,52.20
2019-02-28T11:20:33.241Z,52.40
2019-02-28T11:23:02.331Z,51.57
2019-02-28T11:25:34.669Z,53.33
2019-02-28T11:28:02.042Z,49.77
2019-02-28T11:30:31.214Z,50.97
2019-02-28T11:33:03.202Z,50.40
2019-02-28T11:35:31.130Z,48.83
2019-02-28T11:38:00.152Z,50.93
2019-02-28T11:40:29.561Z,49.60
2019-02-28T11:42:59.392Z,48.27
2019-02-28T11:45:29.562Z,49.07
2019-02-28T11:47:59.744Z,47.17
2019-02-28T11:50:28.813Z,44.47
2019-02-28T11:53:03.291Z,45.13
2019-02-28T11:55:28.634Z,42.90
2019-02-28T11:57:57.714Z,42.03
2019-02-28T12:00:28.449Z,42.30
2019-02-28T12:03:00.764Z,41.40
2019-02-28T12:05:28.866Z,41.70
2019-02-28T12:08:01.157Z,40.13
2019-02-28T12:10:30.254Z,38.03
2019-02-28T12:12:59.262Z,39.40
2019-02-28T12:15:28.828Z,40.30
2019-02-28T12:18:03.348Z,40.13
2019-02-28T12:20:28.610Z,40.10
2019-02-28T12:22:57.602Z,40.47
2019-02-28T12:25:26.651Z,36.83
2019-02-28T12:27:59.376Z,36.07
2019-02-28T12:30:27.882Z,34.93
2019-02-28T12:32:56.887Z,32.93
2019-02-28T12:35:25.934Z,36.93
2019-02-28T12:37:57.039Z,36.70
2019-02-28T12:40:27.104Z,39.13
2019-02-28T12:42:56.214Z,39.63
2019-02-28T12:45:30.666Z,41.63
2019-02-28T12:48:00.877Z,42.97
2019-02-28T12:50:30.413Z,44.37
2019-02-28T12:52:59.506Z,45.77
2019-02-28T12:55:28.630Z,44.90
2019-02-28T12:57:58.582Z,45.53
2019-02-28T13:00:35.491Z,46.43
2019-02-28T13:03:04.581Z,47.20
2019-02-28T13:05:33.630Z,48.43
2019-02-28T13:08:05.716Z,48.27
2019-02-28T13:10:33.425Z,47.83
2019-02-28T13:13:06.471Z,48.27
2019-02-28T13:15:33.159Z,47.10
2019-02-28T13:18:07.601Z,46.90
2019-02-28T13:20:34.691Z,46.33
2019-02-28T13:23:03.799Z,43.93
2019-02-28T13:25:32.843Z,43.17
2019-02-28T13:28:01.848Z,44.10
2019-02-28T13:30:30.871Z,42.73
2019-02-28T13:32:59.848Z,41.43
2019-02-28T13:35:30.636Z,38.33
2019-02-28T13:37:59.709Z,36.57
2019-02-28T13:40:28.782Z,34.40
2019-02-28T13:42:57.802Z,31.87
2019-02-28T13:45:28.813Z,29.43
2019-02-28T13:47:57.953Z,29.43
2019-02-28T13:50:27.618Z,26.87
2019-02-28T13:52:56.659Z,24.90
2019-02-28T13:55:37.782Z,25.67
2019-02-28T13:58:06.858Z,22.43
2019-02-28T14:00:35.958Z,23.40
2019-02-28T14:03:09.642Z,21.40
2019-02-28T14:05:40.872Z,19.97
2019-02-28T14:08:27.358Z,20.03
2019-02-28T14:10:56.414Z,19.63
2019-02-28T14:13:25.484Z,16.97
2019-02-28T14:15:54.500Z,15.70
2019-02-28T14:18:24.722Z,13.77
2019-02-28T14:20:53.728Z,12.30
2019-02-28T14:23:22.759Z,11.77
2019-02-28T14:25:51.811Z,12.60
2019-02-28T14:28:20.882Z,11.03
2019-02-28T14:30:49.931Z,10.40
2019-02-28T14:33:19.596Z,9.90
2019-02-28T14:35:49.814Z,9.67
2019-02-28T14:38:18.858Z,8.27
2019-02-28T14:40:49.623Z,8.30
2019-02-28T14:43:19.541Z,7.07
2019-02-28T14:45:49.622Z,7.30
2019-02-28T14:48:18.739Z,7.53
2019-02-28T14:50:50.490Z,7.53
2019-02-28T14:53:18.511Z,6.57
2019-02-28T14:55:47.517Z,6.73
2019-02-28T14:58:16.658Z,6.60
2019-02-28T15:00:45.661Z,7.20
2019-02-28T15:03:14.995Z,6.43
2019-02-28T15:05:44.089Z,7.00
2019-02-28T15:08:15.411Z,6.83
2019-02-28T15:11:02.958Z,6.37
2019-02-28T15:13:33.456Z,7.60
2019-02-28T15:16:02.727Z,6.43
2019-02-28T15:18:51.245Z,5.73
2019-02-28T15:21:20.502Z,5.63
2019-02-28T15:23:49.499Z,5.20
2019-02-28T15:26:18.602Z,5.43
2019-02-28T15:28:48.556Z,5.63
2019-02-28T15:31:18.277Z,4.67
2019-02-28T15:33:47.327Z,5.50
2019-02-28T15:36:16.385Z,5.47
2019-02-28T15:38:45.481Z,4.60
2019-02-28T15:41:14.509Z,4.40
2019-02-28T15:43:43.484Z,4.10
2019-02-28T15:46:14.692Z,4.90
2019-02-28T15:48:43.857Z,4.33
2019-02-28T15:51:12.899Z,4.23
2019-02-28T15:53:41.977Z,4.40
2019-02-28T15:56:13.542Z,4.13
2019-02-28T15:58:42.302Z,4.00
2019-02-28T16:01:11.453Z,4.07
2019-02-28T16:03:40.505Z,4.37
2019-02-28T16:06:09.684Z,4.07
2019-02-28T16:08:41.898Z,3.80
2019-02-28T16:11:09.422Z,5.37
2019-02-28T16:13:38.543Z,4.20
2019-02-28T16:16:07.685Z,3.83
2019-02-28T16:18:40.803Z,3.33
2019-02-28T16:21:13.101Z,3.60
2019-02-28T16:23:42.076Z,3.63
2019-02-28T16:26:11.101Z,4.80
2019-02-28T16:28:42.739Z,3.87
2019-02-28T16:31:14.262Z,4.07
2019-02-28T16:33:43.384Z,3.73
2019-02-28T16:36:12.425Z,3.83
2019-02-28T16:38:42.432Z,4.53
2019-02-28T16:41:12.218Z,4.70
2019-02-28T16:43:41.399Z,3.90
2019-02-28T16:46:12.355Z,5.00
2019-02-28T16:48:41.353Z,4.60
2019-02-28T16:51:10.363Z,4.90
2019-02-28T16:53:39.347Z,4.70
2019-02-28T16:56:08.410Z,4.23
2019-02-28T16:58:40.329Z,5.00
2019-02-28T17:01:09.454Z,4.20
2019-02-28T17:03:41.807Z,4.47
2019-02-28T17:06:09.247Z,6.57
2019-02-28T17:08:45.855Z,4.33
2019-02-28T17:11:18.355Z,4.57
2019-02-28T17:13:51.107Z,4.70
2019-02-28T17:16:42.368Z,5.53
2019-02-28T17:19:11.539Z,6.70
2019-02-28T17:21:40.527Z,6.57
2019-02-28T17:24:12.132Z,6.20
2019-02-28T17:26:58.127Z,5.47
2019-02-28T17:29:36.599Z,5.50
2019-02-28T17:32:05.887Z,5.13
2019-02-28T17:34:35.010Z,5.30
2019-02-28T17:37:04.122Z,5.47
2019-02-28T17:39:34.617Z,4.50
2019-02-28T17:42:08.553Z,5.57
2019-02-28T17:45:03.321Z,4.83
2019-02-28T17:48:05.155Z,4.63
2019-02-28T17:51:14.959Z,5.00
2019-02-28T17:54:05.121Z,4.93
2019-02-28T17:56:44.632Z,5.07
2019-02-28T18:00:12.936Z,6.27
2019-02-28T18:03:18.124Z,5.20
2019-02-28T18:06:24.333Z,5.80
2019-02-28T18:09:02.508Z,5.33
2019-02-28T18:12:15.638Z,5.53
2019-02-28T18:14:59.810Z,4.97
2019-02-28T18:18:05.366Z,6.73
2019-02-28T18:21:17.202Z,5.37
2019-02-28T18:24:16.697Z,5.53
2019-02-28T18:27:18.160Z,5.30
2019-02-28T18:30:21.036Z,5.37
2019-02-28T18:32:50.169Z,6.07
2019-02-28T18:35:19.202Z,5.97
2019-02-28T18:37:48.193Z,5.03
2019-02-28T18:40:17.183Z,5.73
2019-02-28T18:42:46.227Z,5.10
2019-02-28T18:45:19.086Z,5.70
2019-02-28T18:47:46.818Z,5.27
2019-02-28T18:50:22.087Z,5.20
2019-02-28T18:52:51.523Z,5.47
2019-02-28T18:55:20.738Z,5.90
2019-02-28T18:57:49.787Z,6.07
2019-02-28T19:00:19.579Z,5.77
2019-02-28T19:02:48.661Z,6.93
2019-02-28T19:05:17.795Z,5.80
2019-02-28T19:07:46.894Z,6.67
2019-02-28T19:10:15.905Z,6.93
2019-02-28T19:12:44.976Z,8.60
2019-02-28T19:15:14.710Z,7.13
2019-02-28T19:17:43.755Z,8.43
2019-02-28T19:20:12.821Z,7.07
2019-02-28T19:22:41.860Z,6.43
2019-02-28T19:25:10.980Z,6.60
2019-02-28T19:27:40.052Z,5.80
2019-02-28T19:30:10.961Z,7.23
2019-02-28T19:32:40.006Z,6.87
2019-02-28T19:35:09.081Z,8.50
2019-02-28T19:37:41.189Z,7.33
2019-02-28T19:40:11.619Z,7.07
2019-02-28T19:42:40.844Z,6.90
2019-02-28T19:45:11.658Z,7.57
2019-02-28T19:47:40.726Z,6.80
2019-02-28T19:50:10.631Z,8.10
2019-02-28T19:52:39.645Z,6.93
2019-02-28T19:55:10.386Z,7.83
2019-02-28T19:57:39.481Z,7.47
2019-02-28T20:00:10.842Z,8.10
2019-02-28T20:02:40.017Z,8.87
2019-02-28T20:05:09.219Z,10.13
2019-02-28T20:07:38.307Z,8.23
2019-02-28T20:10:09.084Z,8.07
2019-02-28T20:12:38.245Z,7.53
2019-02-28T20:15:07.436Z,8.13
2019-02-28T20:17:36.518Z,9.27
2019-02-28T20:20:07.829Z,7.37
2019-02-28T20:22:37.067Z,7.90
2019-02-28T20:25:06.470Z,7.50
2019-02-28T20:27:35.643Z,8.53
2019-02-28T20:30:04.959Z,8.37
2019-02-28T20:32:34.045Z,8.43
2019-02-28T20:35:03.219Z,8.00
2019-02-28T20:37:32.206Z,8.20
2019-02-28T20:40:01.289Z,8.77
2019-02-28T20:42:30.399Z,9.73
2019-02-28T20:44:59.328Z,8.67
2019-02-28T20:47:28.377Z,8.47
2019-02-28T20:49:57.436Z,8.97
2019-02-28T20:52:26.453Z,9.37
2019-02-28T20:54:55.459Z,10.33
2019-02-28T20:57:24.449Z,10.87
2019-02-28T20:59:53.508Z,10.10
2019-02-28T21:02:22.563Z,10.57
2019-02-28T21:04:51.550Z,10.00
2019-02-28T21:07:20.597Z,10.33
2019-02-28T21:09:49.607Z,10.67
2019-02-28T21:12:18.642Z,11.17
2019-02-28T21:14:47.668Z,11.10
2019-02-28T21:17:16.754Z,11.23
2019-02-28T21:19:45.816Z,12.17
2019-02-28T21:22:14.891Z,12.00
2019-02-28T21:24:43.918Z,13.97
2019-02-28T21:27:13.129Z,12.50
2019-02-28T21:29:45.005Z,12.37
2019-02-28T21:32:14.067Z,12.07
2019-02-28T21:34:43.211Z,13.00
2019-02-28T21:37:12.369Z,12.90
2019-02-28T21:39:41.425Z,12.63
2019-02-28T21:42:10.581Z,11.73
2019-02-28T21:44:39.655Z,11.87
2019-02-28T21:47:08.706Z,12.20
2019-02-28T21:49:37.678Z,11.93
2019-02-28T21:52:06.743Z,11.43
2019-02-28T21:54:35.799Z,11.33
2019-02-28T21:57:04.794Z,10.90
2019-02-28T21:59:33.826Z,9.73
2019-02-28T22:02:02.911Z,9.43
2019-02-28T22:04:31.897Z,10.10
2019-02-28T22:07:00.967Z,9.00
2019-02-28T22:09:30.044Z,9.20
2019-02-28T22:11:59.097Z,9.60
2019-02-28T22:14:28.164Z,7.50
2019-02-28T22:16:57.234Z,7.93
2019-02-28T22:19:26.322Z,8.10
2019-02-28T22:21:55.437Z,7.60
2019-02-28T22:24:24.470Z,7.00
2019-02-28T22:26:53.509Z,8.00
2019-02-28T22:29:22.587Z,8.30
2019-02-28T22:31:58.330Z,9.53
2019-02-28T22:34:41.353Z,8.13
2019-02-28T22:37:10.411Z,8.03
2019-02-28T22:39:39.487Z,8.60
2019-02-28T22:42:21.213Z,7.77
2019-02-28T22:44:40.481Z,7.70
2019-02-28T22:47:09.557Z,8.13
2019-02-28T22:49:38.567Z,7.40
2019-02-28T22:52:07.577Z,8.00
2019-02-28T22:54:36.626Z,9.43
2019-02-28T22:57:05.632Z,8.80
2019-02-28T22:59:34.694Z,10.10
2019-02-28T23:02:03.711Z,8.47
2019-02-28T23:04:32.698Z,9.00
2019-02-28T23:07:01.727Z,8.90
2019-02-28T23:09:30.741Z,8.00
2019-02-28T23:11:59.777Z,9.47
2019-02-28T23:14:28.775Z,8.53
2019-02-28T23:16:57.800Z,8.83
2019-02-28T23:19:26.819Z,9.17
2019-02-28T23:21:55.842Z,10.37
2019-02-28T23:24:24.795Z,10.77
2019-02-28T23:27:15.436Z,10.63
2019-02-28T23:29:48.725Z,11.33
2019-02-28T23:32:50.784Z,11.53
2019-02-28T23:35:23.589Z,12.37
2019-02-28T23:37:52.608Z,12.43
2019-02-28T23:40:21.611Z,13.47
2019-02-28T23:42:50.662Z,13.13
2019-02-28T23:45:19.810Z,15.93
2019-02-28T23:47:48.880Z,15.83
2019-02-28T23:50:17.959Z,15.23
2019-02-28T23:52:47.958Z,15.87
2019-02-28T23:55:16.971Z,17.60
2019-02-28T23:57:46.085Z,18.03
